sensor_id;sensor_type;location;lat;lon;timestamp;pressure;altitude;pressure_sealevel;temperature;humidity
8416;BME280;4245;42.120;24.732;2022-07-29T00:02:24;99348.44;;;24.59;72.93
8416;BME280;4245;42.120;24.732;2022-07-29T00:04:51;99355.06;;;24.50;73.33
8416;BME280;4245;42.120;24.732;2022-07-29T00:07:19;99349.88;;;24.55;73.14
8416;BME280;4245;42.120;24.732;2022-07-29T00:09:46;99350.72;;;24.56;72.98
8416;BME280;4245;42.120;24.732;2022-07-29T00:12:13;99350.53;;;24.57;72.79
8416;BME280;4245;42.120;24.732;2022-07-29T00:14:40;99347.41;;;24.60;72.84
8416;BME280;4245;42.120;24.732;2022-07-29T00:17:07;99347.63;;;24.59;72.72
8416;BME280;4245;42.120;24.732;2022-07-29T00:19:34;99346.31;;;24.55;73.11
8416;BME280;4245;42.120;24.732;2022-07-29T00:22:00;99342.13;;;24.52;73.06
8416;BME280;4245;42.120;24.732;2022-07-29T00:24:29;99345.09;;;24.57;73.09
8416;BME280;4245;42.120;24.732;2022-07-29T00:26:55;99346.38;;;24.61;72.87
8416;BME280;4245;42.120;24.732;2022-07-29T00:29:22;99343.53;;;24.69;72.62
8416;BME280;4245;42.120;24.732;2022-07-29T00:31:50;99339.97;;;24.69;72.68
8416;BME280;4245;42.120;24.732;2022-07-29T00:34:17;99350.97;;;24.82;72.11
8416;BME280;4245;42.120;24.732;2022-07-29T00:37:01;99340.28;;;25.02;71.12
8416;BME280;4245;42.120;24.732;2022-07-29T00:39:29;99337.16;;;25.05;70.97
8416;BME280;4245;42.120;24.732;2022-07-29T00:41:56;99336.13;;;25.13;70.62
8416;BME280;4245;42.120;24.732;2022-07-29T00:44:23;99343.00;;;25.08;70.86
8416;BME280;4245;42.120;24.732;2022-07-29T00:46:50;99343.06;;;25.15;70.67
8416;BME280;4245;42.120;24.732;2022-07-29T00:49:16;99342.41;;;25.06;70.82
8416;BME280;4245;42.120;24.732;2022-07-29T00:51:43;99344.69;;;25.09;70.78
8416;BME280;4245;42.120;24.732;2022-07-29T00:54:10;99345.59;;;25.17;70.81
8416;BME280;4245;42.120;24.732;2022-07-29T00:56:38;99341.97;;;25.09;70.96
8416;BME280;4245;42.120;24.732;2022-07-29T00:59:05;99345.31;;;25.05;71.27
8416;BME280;4245;42.120;24.732;2022-07-29T01:01:32;99341.66;;;24.91;72.02
8416;BME280;4245;42.120;24.732;2022-07-29T01:03:59;99343.13;;;24.94;71.84
8416;BME280;4245;42.120;24.732;2022-07-29T01:06:27;99344.66;;;25.03;71.82
8416;BME280;4245;42.120;24.732;2022-07-29T01:08:54;99343.44;;;25.05;71.45
8416;BME280;4245;42.120;24.732;2022-07-29T01:11:21;99344.47;;;25.04;71.46
8416;BME280;4245;42.120;24.732;2022-07-29T01:13:49;99342.34;;;25.00;72.14
8416;BME280;4245;42.120;24.732;2022-07-29T01:16:21;99351.34;;;25.00;71.68
8416;BME280;4245;42.120;24.732;2022-07-29T01:18:54;99352.78;;;24.75;73.05
8416;BME280;4245;42.120;24.732;2022-07-29T01:21:50;99345.97;;;24.64;74.48
8416;BME280;4245;42.120;24.732;2022-07-29T01:24:33;99356.50;;;24.74;74.13
8416;BME280;4245;42.120;24.732;2022-07-29T01:27:17;99358.09;;;24.83;73.12
8416;BME280;4245;42.120;24.732;2022-07-29T01:29:55;99351.03;;;24.89;72.25
8416;BME280;4245;42.120;24.732;2022-07-29T01:32:26;99357.09;;;24.69;73.25
8416;BME280;4245;42.120;24.732;2022-07-29T01:34:57;99354.03;;;24.51;74.34
8416;BME280;4245;42.120;24.732;2022-07-29T01:37:28;99353.06;;;24.38;75.54
8416;BME280;4245;42.120;24.732;2022-07-29T01:39:57;99355.78;;;24.38;75.75
8416;BME280;4245;42.120;24.732;2022-07-29T01:42:29;99353.66;;;24.54;75.07
8416;BME280;4245;42.120;24.732;2022-07-29T01:45:02;99347.50;;;24.67;73.89
8416;BME280;4245;42.120;24.732;2022-07-29T01:47:40;99349.81;;;24.70;73.46
8416;BME280;4245;42.120;24.732;2022-07-29T01:50:12;99347.38;;;24.54;74.14
8416;BME280;4245;42.120;24.732;2022-07-29T01:52:44;99343.75;;;24.47;74.59
8416;BME280;4245;42.120;24.732;2022-07-29T01:55:14;99341.47;;;24.50;75.38
8416;BME280;4245;42.120;24.732;2022-07-29T01:57:44;99337.91;;;24.50;73.66
8416;BME280;4245;42.120;24.732;2022-07-29T02:00:15;99344.06;;;24.37;73.37
8416;BME280;4245;42.120;24.732;2022-07-29T02:02:44;99349.50;;;24.01;71.85
8416;BME280;4245;42.120;24.732;2022-07-29T02:05:14;99337.63;;;23.37;75.99
8416;BME280;4245;42.120;24.732;2022-07-29T02:07:43;99346.09;;;23.05;79.39
8416;BME280;4245;42.120;24.732;2022-07-29T02:10:11;99340.22;;;23.01;79.84
8416;BME280;4245;42.120;24.732;2022-07-29T02:12:40;99336.31;;;23.04;80.92
8416;BME280;4245;42.120;24.732;2022-07-29T02:15:09;99338.00;;;23.19;80.08
8416;BME280;4245;42.120;24.732;2022-07-29T02:17:42;99339.59;;;23.14;80.18
8416;BME280;4245;42.120;24.732;2022-07-29T02:20:09;99331.53;;;22.91;82.35
8416;BME280;4245;42.120;24.732;2022-07-29T02:22:38;99331.16;;;22.57;84.94
8416;BME280;4245;42.120;24.732;2022-07-29T02:25:07;99338.50;;;22.71;85.18
8416;BME280;4245;42.120;24.732;2022-07-29T02:27:35;99333.22;;;22.54;86.56
8416;BME280;4245;42.120;24.732;2022-07-29T02:30:06;99329.78;;;22.61;86.12
8416;BME280;4245;42.120;24.732;2022-07-29T02:32:35;99331.56;;;22.68;87.20
8416;BME280;4245;42.120;24.732;2022-07-29T02:35:06;99328.53;;;22.48;89.27
8416;BME280;4245;42.120;24.732;2022-07-29T02:37:35;99325.22;;;22.38;90.88
8416;BME280;4245;42.120;24.732;2022-07-29T02:40:03;99325.25;;;22.76;88.96
8416;BME280;4245;42.120;24.732;2022-07-29T02:42:32;99322.00;;;22.95;87.39
8416;BME280;4245;42.120;24.732;2022-07-29T02:47:31;99325.56;;;23.25;85.60
8416;BME280;4245;42.120;24.732;2022-07-29T02:50:04;99317.63;;;23.38;84.91
8416;BME280;4245;42.120;24.732;2022-07-29T02:52:39;99325.97;;;23.51;84.04
8416;BME280;4245;42.120;24.732;2022-07-29T02:55:13;99320.25;;;23.61;84.24
8416;BME280;4245;42.120;24.732;2022-07-29T02:57:43;99319.41;;;23.60;85.29
8416;BME280;4245;42.120;24.732;2022-07-29T03:00:11;99319.31;;;23.54;85.75
8416;BME280;4245;42.120;24.732;2022-07-29T03:02:40;99333.25;;;23.51;86.71
8416;BME280;4245;42.120;24.732;2022-07-29T03:05:19;99324.94;;;23.52;87.05
8416;BME280;4245;42.120;24.732;2022-07-29T03:07:52;99325.69;;;23.46;87.06
8416;BME280;4245;42.120;24.732;2022-07-29T03:10:20;99327.63;;;23.67;86.29
8416;BME280;4245;42.120;24.732;2022-07-29T03:12:47;99327.72;;;23.59;86.69
8416;BME280;4245;42.120;24.732;2022-07-29T03:15:15;99329.31;;;23.53;86.30
8416;BME280;4245;42.120;24.732;2022-07-29T03:17:43;99328.38;;;23.61;86.18
8416;BME280;4245;42.120;24.732;2022-07-29T03:20:11;99330.63;;;23.72;84.98
8416;BME280;4245;42.120;24.732;2022-07-29T03:22:40;99341.34;;;23.80;84.57
8416;BME280;4245;42.120;24.732;2022-07-29T03:25:11;99336.50;;;23.75;84.59
8416;BME280;4245;42.120;24.732;2022-07-29T03:27:38;99341.38;;;23.65;84.34
8416;BME280;4245;42.120;24.732;2022-07-29T03:30:06;99345.19;;;23.42;86.45
8416;BME280;4245;42.120;24.732;2022-07-29T03:32:33;99340.91;;;23.32;85.16
8416;BME280;4245;42.120;24.732;2022-07-29T03:35:00;99350.53;;;23.35;84.88
8416;BME280;4245;42.120;24.732;2022-07-29T03:37:27;99355.75;;;23.22;83.89
8416;BME280;4245;42.120;24.732;2022-07-29T03:39:57;99350.97;;;23.09;85.82
8416;BME280;4245;42.120;24.732;2022-07-29T03:42:30;99361.47;;;23.12;84.86
8416;BME280;4245;42.120;24.732;2022-07-29T03:44:58;99354.53;;;23.24;83.84
8416;BME280;4245;42.120;24.732;2022-07-29T03:47:28;99355.88;;;23.28;83.64
8416;BME280;4245;42.120;24.732;2022-07-29T03:49:59;99359.03;;;23.32;83.32
8416;BME280;4245;42.120;24.732;2022-07-29T03:52:27;99361.81;;;23.38;82.44
8416;BME280;4245;42.120;24.732;2022-07-29T03:54:57;99355.88;;;23.28;84.03
8416;BME280;4245;42.120;24.732;2022-07-29T03:57:27;99362.38;;;23.19;84.29
8416;BME280;4245;42.120;24.732;2022-07-29T03:59:55;99360.72;;;23.33;84.06
8416;BME280;4245;42.120;24.732;2022-07-29T04:02:22;99359.50;;;23.35;84.61
8416;BME280;4245;42.120;24.732;2022-07-29T04:04:49;99363.81;;;23.45;84.07
8416;BME280;4245;42.120;24.732;2022-07-29T04:07:16;99370.81;;;23.39;84.89
8416;BME280;4245;42.120;24.732;2022-07-29T04:09:43;99370.53;;;23.34;85.37
8416;BME280;4245;42.120;24.732;2022-07-29T04:12:10;99371.00;;;23.37;85.75
8416;BME280;4245;42.120;24.732;2022-07-29T04:14:38;99365.63;;;23.52;85.20
8416;BME280;4245;42.120;24.732;2022-07-29T04:17:05;99368.31;;;23.52;84.92
8416;BME280;4245;42.120;24.732;2022-07-29T04:19:33;99368.38;;;23.44;85.35
8416;BME280;4245;42.120;24.732;2022-07-29T04:22:00;99377.75;;;23.56;85.02
8416;BME280;4245;42.120;24.732;2022-07-29T04:24:27;99372.41;;;23.48;85.39
8416;BME280;4245;42.120;24.732;2022-07-29T04:26:54;99371.84;;;23.67;84.55
8416;BME280;4245;42.120;24.732;2022-07-29T04:29:21;99371.22;;;23.65;84.30
8416;BME280;4245;42.120;24.732;2022-07-29T04:31:50;99374.31;;;23.62;83.93
8416;BME280;4245;42.120;24.732;2022-07-29T04:34:16;99369.34;;;23.66;84.02
8416;BME280;4245;42.120;24.732;2022-07-29T04:36:43;99374.16;;;23.85;81.79
8416;BME280;4245;42.120;24.732;2022-07-29T04:39:10;99367.06;;;23.84;82.48
8416;BME280;4245;42.120;24.732;2022-07-29T04:41:37;99374.19;;;24.21;80.07
8416;BME280;4245;42.120;24.732;2022-07-29T04:44:04;99374.59;;;24.39;76.71
8416;BME280;4245;42.120;24.732;2022-07-29T04:46:31;99376.41;;;24.32;75.89
8416;BME280;4245;42.120;24.732;2022-07-29T04:48:59;99385.13;;;24.28;76.94
8416;BME280;4245;42.120;24.732;2022-07-29T04:51:26;99384.53;;;24.32;76.45
8416;BME280;4245;42.120;24.732;2022-07-29T04:53:53;99387.19;;;24.47;77.10
8416;BME280;4245;42.120;24.732;2022-07-29T04:56:19;99391.03;;;24.74;74.90
8416;BME280;4245;42.120;24.732;2022-07-29T04:58:46;99395.50;;;25.09;73.07
8416;BME280;4245;42.120;24.732;2022-07-29T05:01:13;99390.63;;;25.26;71.45
8416;BME280;4245;42.120;24.732;2022-07-29T05:03:40;99392.31;;;25.27;70.90
8416;BME280;4245;42.120;24.732;2022-07-29T05:06:08;99396.06;;;25.26;71.19
8416;BME280;4245;42.120;24.732;2022-07-29T05:08:35;99395.97;;;25.47;69.35
8416;BME280;4245;42.120;24.732;2022-07-29T05:11:03;99394.56;;;25.51;69.89
8416;BME280;4245;42.120;24.732;2022-07-29T05:13:30;99396.81;;;25.82;69.27
8416;BME280;4245;42.120;24.732;2022-07-29T05:15:57;99391.94;;;26.18;67.19
8416;BME280;4245;42.120;24.732;2022-07-29T05:18:24;99391.19;;;26.44;66.35
8416;BME280;4245;42.120;24.732;2022-07-29T05:20:51;99400.22;;;26.64;65.12
8416;BME280;4245;42.120;24.732;2022-07-29T05:23:19;99399.38;;;26.64;64.64
8416;BME280;4245;42.120;24.732;2022-07-29T05:25:46;99395.59;;;26.58;64.54
8416;BME280;4245;42.120;24.732;2022-07-29T05:28:12;99399.19;;;26.65;64.94
8416;BME280;4245;42.120;24.732;2022-07-29T05:30:40;99398.75;;;26.68;64.81
8416;BME280;4245;42.120;24.732;2022-07-29T05:33:09;99405.06;;;26.82;64.14
8416;BME280;4245;42.120;24.732;2022-07-29T05:35:36;99402.38;;;27.02;63.32
8416;BME280;4245;42.120;24.732;2022-07-29T05:38:03;99406.97;;;27.34;62.03
8416;BME280;4245;42.120;24.732;2022-07-29T05:40:31;99405.28;;;27.53;61.15
8416;BME280;4245;42.120;24.732;2022-07-29T05:42:59;99405.19;;;27.86;59.48
8416;BME280;4245;42.120;24.732;2022-07-29T05:45:26;99409.50;;;28.13;58.82
8416;BME280;4245;42.120;24.732;2022-07-29T05:47:53;99411.16;;;28.21;58.63
8416;BME280;4245;42.120;24.732;2022-07-29T05:50:20;99419.91;;;28.36;57.93
8416;BME280;4245;42.120;24.732;2022-07-29T05:52:46;99421.88;;;28.60;56.97
8416;BME280;4245;42.120;24.732;2022-07-29T05:55:13;99428.34;;;28.66;56.77
8416;BME280;4245;42.120;24.732;2022-07-29T05:57:41;99423.06;;;28.71;56.34
8416;BME280;4245;42.120;24.732;2022-07-29T06:00:11;99438.56;;;28.83;55.72
8416;BME280;4245;42.120;24.732;2022-07-29T06:02:38;99426.34;;;28.86;55.29
8416;BME280;4245;42.120;24.732;2022-07-29T06:05:06;99438.47;;;29.21;54.21
8416;BME280;4245;42.120;24.732;2022-07-29T06:07:33;99432.69;;;29.29;53.88
8416;BME280;4245;42.120;24.732;2022-07-29T06:10:00;99433.63;;;29.23;53.90
8416;BME280;4245;42.120;24.732;2022-07-29T06:12:27;99431.25;;;29.27;53.90
8416;BME280;4245;42.120;24.732;2022-07-29T06:14:55;99442.75;;;29.60;52.65
8416;BME280;4245;42.120;24.732;2022-07-29T06:17:22;99435.31;;;29.67;52.06
8416;BME280;4245;42.120;24.732;2022-07-29T06:19:49;99434.72;;;29.65;52.57
8416;BME280;4245;42.120;24.732;2022-07-29T06:22:16;99428.53;;;29.88;52.08
8416;BME280;4245;42.120;24.732;2022-07-29T06:24:42;99429.88;;;30.04;51.95
8416;BME280;4245;42.120;24.732;2022-07-29T06:27:09;99434.44;;;30.10;50.87
8416;BME280;4245;42.120;24.732;2022-07-29T06:29:37;99430.78;;;29.98;51.19
8416;BME280;4245;42.120;24.732;2022-07-29T06:32:05;99420.25;;;30.13;50.96
8416;BME280;4245;42.120;24.732;2022-07-29T06:34:34;99429.53;;;30.48;49.49
8416;BME280;4245;42.120;24.732;2022-07-29T06:37:05;99432.78;;;30.39;49.73
8416;BME280;4245;42.120;24.732;2022-07-29T06:39:33;99428.56;;;30.25;49.83
8416;BME280;4245;42.120;24.732;2022-07-29T06:42:00;99429.81;;;30.58;49.24
8416;BME280;4245;42.120;24.732;2022-07-29T06:47:02;99424.88;;;30.90;48.01
8416;BME280;4245;42.120;24.732;2022-07-29T06:49:30;99422.34;;;30.77;48.21
8416;BME280;4245;42.120;24.732;2022-07-29T06:51:57;99422.53;;;31.05;47.75
8416;BME280;4245;42.120;24.732;2022-07-29T06:54:24;99420.31;;;31.26;47.51
8416;BME280;4245;42.120;24.732;2022-07-29T06:56:50;99423.06;;;31.26;46.65
8416;BME280;4245;42.120;24.732;2022-07-29T06:59:17;99423.75;;;31.33;46.30
8416;BME280;4245;42.120;24.732;2022-07-29T07:01:44;99416.72;;;31.48;46.72
8416;BME280;4245;42.120;24.732;2022-07-29T07:04:11;99417.44;;;31.79;44.96
8416;BME280;4245;42.120;24.732;2022-07-29T07:06:40;99422.28;;;32.00;44.65
8416;BME280;4245;42.120;24.732;2022-07-29T07:09:07;99425.16;;;32.17;44.54
8416;BME280;4245;42.120;24.732;2022-07-29T07:11:33;99416.13;;;32.33;43.06
8416;BME280;4245;42.120;24.732;2022-07-29T07:14:00;99417.41;;;32.14;43.74
8416;BME280;4245;42.120;24.732;2022-07-29T07:16:27;99414.66;;;32.42;43.04
8416;BME280;4245;42.120;24.732;2022-07-29T07:18:54;99414.38;;;32.44;42.34
8416;BME280;4245;42.120;24.732;2022-07-29T07:21:21;99408.84;;;32.84;40.83
8416;BME280;4245;42.120;24.732;2022-07-29T07:23:49;99414.69;;;33.04;40.66
8416;BME280;4245;42.120;24.732;2022-07-29T07:26:16;99425.94;;;33.02;40.19
8416;BME280;4245;42.120;24.732;2022-07-29T07:28:42;99422.84;;;32.99;40.37
8416;BME280;4245;42.120;24.732;2022-07-29T07:31:10;99418.72;;;32.68;40.39
8416;BME280;4245;42.120;24.732;2022-07-29T07:33:37;99412.84;;;32.48;40.85
8416;BME280;4245;42.120;24.732;2022-07-29T07:36:03;99417.09;;;32.67;40.59
8416;BME280;4245;42.120;24.732;2022-07-29T07:38:30;99410.25;;;33.03;40.25
8416;BME280;4245;42.120;24.732;2022-07-29T07:40:59;99420.53;;;33.41;38.79
8416;BME280;4245;42.120;24.732;2022-07-29T07:43:26;99417.69;;;33.52;38.78
8416;BME280;4245;42.120;24.732;2022-07-29T07:45:53;99414.25;;;33.45;38.82
8416;BME280;4245;42.120;24.732;2022-07-29T07:48:20;99416.09;;;33.56;38.70
8416;BME280;4245;42.120;24.732;2022-07-29T07:50:47;99416.03;;;33.68;37.55
8416;BME280;4245;42.120;24.732;2022-07-29T07:53:14;99415.56;;;33.21;39.15
8416;BME280;4245;42.120;24.732;2022-07-29T07:55:42;99408.50;;;33.47;38.51
8416;BME280;4245;42.120;24.732;2022-07-29T07:58:10;99402.13;;;33.80;37.79
8416;BME280;4245;42.120;24.732;2022-07-29T08:00:37;99407.84;;;34.17;36.30
8416;BME280;4245;42.120;24.732;2022-07-29T08:03:04;99408.28;;;33.87;37.24
8416;BME280;4245;42.120;24.732;2022-07-29T08:05:31;99403.75;;;33.97;35.28
8416;BME280;4245;42.120;24.732;2022-07-29T08:07:57;99403.31;;;34.54;32.93
8416;BME280;4245;42.120;24.732;2022-07-29T08:10:24;99403.19;;;34.98;31.78
8416;BME280;4245;42.120;24.732;2022-07-29T08:13:10;99403.06;;;35.14;31.01
8416;BME280;4245;42.120;24.732;2022-07-29T08:15:39;99409.00;;;34.69;32.10
8416;BME280;4245;42.120;24.732;2022-07-29T08:18:06;99410.28;;;34.62;32.73
8416;BME280;4245;42.120;24.732;2022-07-29T08:20:33;99403.19;;;34.98;31.80
8416;BME280;4245;42.120;24.732;2022-07-29T08:23:01;99408.31;;;34.84;31.37
8416;BME280;4245;42.120;24.732;2022-07-29T08:25:27;99407.50;;;34.62;31.41
8416;BME280;4245;42.120;24.732;2022-07-29T08:27:54;99406.25;;;34.69;31.43
8416;BME280;4245;42.120;24.732;2022-07-29T08:30:23;99410.47;;;35.09;30.96
8416;BME280;4245;42.120;24.732;2022-07-29T08:32:50;99400.25;;;35.41;29.85
8416;BME280;4245;42.120;24.732;2022-07-29T08:35:18;99399.16;;;35.42;29.83
8416;BME280;4245;42.120;24.732;2022-07-29T08:37:45;99399.50;;;35.56;29.22
8416;BME280;4245;42.120;24.732;2022-07-29T08:40:12;99394.59;;;35.63;28.76
8416;BME280;4245;42.120;24.732;2022-07-29T08:42:39;99400.31;;;35.51;27.96
8416;BME280;4245;42.120;24.732;2022-07-29T08:45:07;99394.78;;;35.51;28.57
8416;BME280;4245;42.120;24.732;2022-07-29T08:47:35;99387.56;;;35.87;28.97
8416;BME280;4245;42.120;24.732;2022-07-29T08:50:05;99386.69;;;35.82;29.25
8416;BME280;4245;42.120;24.732;2022-07-29T08:52:35;99378.19;;;35.98;29.12
8416;BME280;4245;42.120;24.732;2022-07-29T08:55:04;99382.16;;;36.23;29.08
8416;BME280;4245;42.120;24.732;2022-07-29T08:57:33;99380.06;;;36.70;28.37
8416;BME280;4245;42.120;24.732;2022-07-29T09:00:01;99372.34;;;36.97;27.99
8416;BME280;4245;42.120;24.732;2022-07-29T09:02:29;99377.56;;;37.50;26.99
8416;BME280;4245;42.120;24.732;2022-07-29T09:05:01;99378.00;;;37.92;27.04
8416;BME280;4245;42.120;24.732;2022-07-29T09:07:28;99380.72;;;38.12;26.07
8416;BME280;4245;42.120;24.732;2022-07-29T09:09:55;99372.34;;;38.22;25.44
8416;BME280;4245;42.120;24.732;2022-07-29T09:12:22;99364.03;;;38.17;25.90
8416;BME280;4245;42.120;24.732;2022-07-29T09:14:50;99369.81;;;38.26;25.75
8416;BME280;4245;42.120;24.732;2022-07-29T09:17:17;99366.81;;;38.66;24.56
8416;BME280;4245;42.120;24.732;2022-07-29T09:19:45;99368.31;;;38.88;23.72
8416;BME280;4245;42.120;24.732;2022-07-29T09:22:28;99366.59;;;38.58;23.82
8416;BME280;4245;42.120;24.732;2022-07-29T09:24:57;99357.50;;;38.86;24.13
8416;BME280;4245;42.120;24.732;2022-07-29T09:27:24;99362.78;;;38.88;24.24
8416;BME280;4245;42.120;24.732;2022-07-29T09:29:58;99360.53;;;38.90;22.81
8416;BME280;4245;42.120;24.732;2022-07-29T09:32:26;99363.00;;;38.57;22.50
8416;BME280;4245;42.120;24.732;2022-07-29T09:35:14;99365.34;;;38.30;22.60
8416;BME280;4245;42.120;24.732;2022-07-29T09:37:43;99361.97;;;38.48;22.84
8416;BME280;4245;42.120;24.732;2022-07-29T09:40:15;99353.75;;;38.67;22.61
8416;BME280;4245;42.120;24.732;2022-07-29T09:42:43;99350.28;;;38.85;22.79
8416;BME280;4245;42.120;24.732;2022-07-29T09:45:10;99355.72;;;39.00;22.94
8416;BME280;4245;42.120;24.732;2022-07-29T09:47:42;99345.94;;;39.61;22.03
8416;BME280;4245;42.120;24.732;2022-07-29T09:50:10;99346.38;;;39.73;21.59
8416;BME280;4245;42.120;24.732;2022-07-29T09:52:47;99343.53;;;40.02;21.52
8416;BME280;4245;42.120;24.732;2022-07-29T09:55:14;99337.19;;;39.96;21.30
8416;BME280;4245;42.120;24.732;2022-07-29T09:57:41;99344.63;;;40.24;21.03
8416;BME280;4245;42.120;24.732;2022-07-29T10:00:11;99344.69;;;40.19;19.97
8416;BME280;4245;42.120;24.732;2022-07-29T10:02:41;99338.28;;;40.19;20.08
8416;BME280;4245;42.120;24.732;2022-07-29T10:05:17;99335.22;;;40.20;20.35
8416;BME280;4245;42.120;24.732;2022-07-29T10:07:48;99341.63;;;39.97;20.97
8416;BME280;4245;42.120;24.732;2022-07-29T10:10:19;99337.63;;;40.27;20.79
8416;BME280;4245;42.120;24.732;2022-07-29T10:12:52;99335.47;;;40.43;20.37
8416;BME280;4245;42.120;24.732;2022-07-29T10:15:22;99343.69;;;40.48;19.95
8416;BME280;4245;42.120;24.732;2022-07-29T10:17:50;99327.63;;;40.63;19.87
8416;BME280;4245;42.120;24.732;2022-07-29T10:20:17;99325.94;;;40.81;20.13
8416;BME280;4245;42.120;24.732;2022-07-29T10:22:46;99336.91;;;41.37;20.10
8416;BME280;4245;42.120;24.732;2022-07-29T10:25:14;99333.97;;;41.47;20.07
8416;BME280;4245;42.120;24.732;2022-07-29T10:27:42;99346.38;;;41.82;19.11
8416;BME280;4245;42.120;24.732;2022-07-29T10:30:10;99341.63;;;41.83;19.17
8416;BME280;4245;42.120;24.732;2022-07-29T10:33:10;99324.31;;;42.08;18.62
8416;BME280;4245;42.120;24.732;2022-07-29T10:35:54;99335.19;;;42.10;19.01
8416;BME280;4245;42.120;24.732;2022-07-29T10:38:42;99325.44;;;42.21;18.79
8416;BME280;4245;42.120;24.732;2022-07-29T10:41:30;99322.41;;;42.44;18.74
8416;BME280;4245;42.120;24.732;2022-07-29T10:44:02;99320.84;;;42.74;18.88
8416;BME280;4245;42.120;24.732;2022-07-29T10:46:39;99318.22;;;42.20;19.13
8416;BME280;4245;42.120;24.732;2022-07-29T10:49:10;99301.94;;;41.72;19.55
8416;BME280;4245;42.120;24.732;2022-07-29T10:52:01;99299.34;;;41.62;19.69
8416;BME280;4245;42.120;24.732;2022-07-29T10:54:49;99297.69;;;41.61;19.63
8416;BME280;4245;42.120;24.732;2022-07-29T10:57:25;99296.03;;;41.74;19.78
8416;BME280;4245;42.120;24.732;2022-07-29T11:00:30;99291.41;;;41.55;20.05
8416;BME280;4245;42.120;24.732;2022-07-29T11:02:57;99290.81;;;42.08;19.81
8416;BME280;4245;42.120;24.732;2022-07-29T11:05:25;99285.09;;;41.91;20.03
8416;BME280;4245;42.120;24.732;2022-07-29T11:08:17;99286.91;;;42.09;20.07
8416;BME280;4245;42.120;24.732;2022-07-29T11:10:47;99274.22;;;42.39;20.08
8416;BME280;4245;42.120;24.732;2022-07-29T11:16:11;99273.56;;;43.09;19.42
8416;BME280;4245;42.120;24.732;2022-07-29T11:19:19;99272.53;;;43.44;19.21
8416;BME280;4245;42.120;24.732;2022-07-29T11:21:46;99266.38;;;43.64;18.99
8416;BME280;4245;42.120;24.732;2022-07-29T11:24:17;99267.06;;;43.79;18.96
8416;BME280;4245;42.120;24.732;2022-07-29T11:27:15;99269.28;;;43.99;18.68
8416;BME280;4245;42.120;24.732;2022-07-29T11:29:53;99275.69;;;43.91;18.69
8416;BME280;4245;42.120;24.732;2022-07-29T11:32:22;99266.47;;;43.42;19.16
8416;BME280;4245;42.120;24.732;2022-07-29T11:35:10;99250.13;;;43.27;18.97
8416;BME280;4245;42.120;24.732;2022-07-29T11:37:36;99259.63;;;43.17;19.15
8416;BME280;4245;42.120;24.732;2022-07-29T11:40:18;99247.16;;;42.70;19.70
8416;BME280;4245;42.120;24.732;2022-07-29T11:42:49;99247.41;;;42.82;19.84
8416;BME280;4245;42.120;24.732;2022-07-29T11:45:23;99235.16;;;43.01;19.88
8416;BME280;4245;42.120;24.732;2022-07-29T11:47:56;99246.34;;;43.23;19.12
8416;BME280;4245;42.120;24.732;2022-07-29T11:50:31;99243.91;;;43.39;19.38
8416;BME280;4245;42.120;24.732;2022-07-29T11:52:59;99238.16;;;43.44;18.77
8416;BME280;4245;42.120;24.732;2022-07-29T11:55:26;99231.75;;;42.73;18.65
8416;BME280;4245;42.120;24.732;2022-07-29T11:57:56;99232.44;;;42.78;19.13
8416;BME280;4245;42.120;24.732;2022-07-29T12:00:27;99228.59;;;42.97;18.85
8416;BME280;4245;42.120;24.732;2022-07-29T12:02:55;99231.41;;;43.05;19.36
8416;BME280;4245;42.120;24.732;2022-07-29T12:05:34;99223.63;;;43.24;19.31
8416;BME280;4245;42.120;24.732;2022-07-29T12:08:06;99227.41;;;43.77;18.68
8416;BME280;4245;42.120;24.732;2022-07-29T12:10:33;99226.25;;;43.21;19.12
8416;BME280;4245;42.120;24.732;2022-07-29T12:13:01;99227.03;;;43.13;19.41
8416;BME280;4245;42.120;24.732;2022-07-29T12:15:28;99219.44;;;42.29;19.69
8416;BME280;4245;42.120;24.732;2022-07-29T12:17:55;99216.13;;;42.72;19.41
8416;BME280;4245;42.120;24.732;2022-07-29T12:20:24;99212.78;;;43.23;19.28
8416;BME280;4245;42.120;24.732;2022-07-29T12:22:51;99208.00;;;42.92;18.53
8416;BME280;4245;42.120;24.732;2022-07-29T12:25:21;99213.03;;;42.29;19.68
8416;BME280;4245;42.120;24.732;2022-07-29T12:27:57;99212.28;;;41.51;20.02
8416;BME280;4245;42.120;24.732;2022-07-29T12:30:37;99210.88;;;42.12;19.16
8416;BME280;4245;42.120;24.732;2022-07-29T12:33:12;99216.53;;;42.34;18.56
8416;BME280;4245;42.120;24.732;2022-07-29T12:35:40;99205.66;;;42.55;18.63
8416;BME280;4245;42.120;24.732;2022-07-29T12:38:09;99199.63;;;42.92;18.84
8416;BME280;4245;42.120;24.732;2022-07-29T12:40:37;99195.88;;;43.37;18.31
8416;BME280;4245;42.120;24.732;2022-07-29T12:43:08;99193.47;;;43.61;18.37
8416;BME280;4245;42.120;24.732;2022-07-29T12:45:38;99189.91;;;42.90;18.73
8416;BME280;4245;42.120;24.732;2022-07-29T12:48:06;99192.72;;;42.37;19.77
8416;BME280;4245;42.120;24.732;2022-07-29T12:50:34;99190.25;;;42.66;19.26
8416;BME280;4245;42.120;24.732;2022-07-29T12:53:09;99185.91;;;42.74;18.90
8416;BME280;4245;42.120;24.732;2022-07-29T12:55:41;99181.66;;;42.85;18.93
8416;BME280;4245;42.120;24.732;2022-07-29T12:58:08;99174.38;;;42.75;19.00
8416;BME280;4245;42.120;24.732;2022-07-29T13:00:37;99181.28;;;42.69;19.27
8416;BME280;4245;42.120;24.732;2022-07-29T13:03:03;99178.06;;;42.62;19.19
8416;BME280;4245;42.120;24.732;2022-07-29T13:05:42;99168.75;;;42.36;19.69
8416;BME280;4245;42.120;24.732;2022-07-29T13:08:11;99164.97;;;41.96;20.30
8416;BME280;4245;42.120;24.732;2022-07-29T13:10:38;99168.00;;;42.53;20.08
8416;BME280;4245;42.120;24.732;2022-07-29T13:13:07;99164.59;;;42.95;19.14
8416;BME280;4245;42.120;24.732;2022-07-29T13:15:37;99154.91;;;43.41;18.96
8416;BME280;4245;42.120;24.732;2022-07-29T13:18:25;99158.41;;;43.63;18.65
8416;BME280;4245;42.120;24.732;2022-07-29T13:20:52;99150.00;;;43.55;18.68
8416;BME280;4245;42.120;24.732;2022-07-29T13:23:19;99146.16;;;43.33;18.76
8416;BME280;4245;42.120;24.732;2022-07-29T13:25:46;99146.66;;;43.36;18.53
8416;BME280;4245;42.120;24.732;2022-07-29T13:28:13;99143.88;;;43.36;18.74
8416;BME280;4245;42.120;24.732;2022-07-29T13:30:41;99137.00;;;43.50;19.27
8416;BME280;4245;42.120;24.732;2022-07-29T13:33:09;99138.44;;;43.39;19.42